Time;durP1;ratioP1;P1;durP2;ratioP2;P2;SDS_P1;SDS_P2;PMS_P1;PMS_P2;Temp;Humidity;BMP_temperature;BMP_pressure;BME280_temperature;BME280_humidity;BME280_pressure;Samples;Min_cycle;Max_cycle;Signal;HPM_P1;HPM_P2
2024/04/02 00:00:13;;;;;;;15.40;2.55;;;9.80;99.90;;;;;;5033116;28;20484;-66
2024/04/02 00:02:39;;;;;;;11.13;2.10;;;9.70;99.90;;;;;;5033269;28;20049;-62
2024/04/02 00:05:05;;;;;;;10.07;2.40;;;9.70;99.90;;;;;;5033392;28;20045;-63
2024/04/02 00:07:31;;;;;;;15.50;2.20;;;9.70;99.90;;;;;;5032922;28;20037;-62
2024/04/02 00:09:57;;;;;;;14.18;2.53;;;9.70;99.90;;;;;;5033181;28;20049;-62
2024/04/02 00:12:23;;;;;;;12.93;2.60;;;9.70;99.90;;;;;;5032902;28;20052;-62
2024/04/02 00:14:48;;;;;;;12.07;2.17;;;9.70;99.90;;;;;;5033042;28;20041;-62
2024/04/02 00:17:14;;;;;;;12.10;2.15;;;9.70;99.90;;;;;;5032549;28;20049;-62
2024/04/02 00:19:40;;;;;;;11.15;2.08;;;9.70;99.90;;;;;;5049328;28;20049;-62
2024/04/02 00:22:06;;;;;;;8.63;1.83;;;9.70;99.90;;;;;;5032792;28;20471;-62
2024/04/02 00:24:32;;;;;;;12.82;2.25;;;9.70;99.90;;;;;;5032526;28;20384;-62
2024/04/02 00:26:58;;;;;;;12.82;2.00;;;9.70;99.90;;;;;;5032588;28;20053;-63
2024/04/02 00:29:24;;;;;;;14.10;2.00;;;9.70;99.90;;;;;;5032629;28;20049;-62
2024/04/02 00:31:49;;;;;;;11.50;1.98;;;9.70;99.90;;;;;;5031946;28;20120;-62
2024/04/02 00:34:15;;;;;;;17.42;1.95;;;9.70;99.90;;;;;;5033266;28;20071;-62
2024/04/02 00:36:41;;;;;;;12.40;2.10;;;9.60;99.90;;;;;;5032680;28;20498;-62
2024/04/02 00:39:07;;;;;;;11.60;2.15;;;9.60;99.90;;;;;;5032613;28;20096;-62
2024/04/02 00:41:33;;;;;;;14.20;2.38;;;9.60;99.90;;;;;;5032434;28;20056;-62
2024/04/02 00:43:59;;;;;;;16.05;2.20;;;9.60;99.90;;;;;;5032240;28;20393;-62
2024/04/02 00:46:24;;;;;;;11.57;1.92;;;9.60;99.90;;;;;;5032419;28;20083;-63
2024/04/02 00:48:51;;;;;;;13.52;2.15;;;9.50;99.90;;;;;;5032229;28;20498;-62
2024/04/02 00:51:17;;;;;;;13.05;1.70;;;9.60;99.90;;;;;;5032262;28;20036;-62
2024/04/02 00:53:43;;;;;;;11.77;2.17;;;9.50;99.90;;;;;;5032352;28;20066;-62
2024/04/02 00:56:08;;;;;;;10.98;2.70;;;9.50;99.90;;;;;;5032490;28;20037;-63
2024/04/02 00:58:34;;;;;;;11.32;2.05;;;9.50;99.90;;;;;;5032250;28;20053;-62
2024/04/02 01:01:00;;;;;;;14.13;2.67;;;9.50;99.90;;;;;;5032122;28;20042;-62
2024/04/02 01:03:26;;;;;;;8.55;1.60;;;9.40;99.90;;;;;;5032253;28;20146;-62
2024/04/02 01:05:51;;;;;;;10.60;2.17;;;9.50;99.90;;;;;;5032010;28;20053;-62
2024/04/02 01:08:17;;;;;;;12.57;2.03;;;9.50;99.90;;;;;;5032249;28;20045;-62
2024/04/02 01:10:43;;;;;;;11.52;1.70;;;9.50;99.90;;;;;;5032226;28;20087;-62
2024/04/02 01:13:09;;;;;;;8.68;1.75;;;9.60;99.90;;;;;;5032126;28;20095;-62
2024/04/02 01:15:34;;;;;;;13.48;2.90;;;9.50;99.90;;;;;;5032054;28;20038;-63
2024/04/02 01:18:00;;;;;;;9.35;1.75;;;9.60;99.90;;;;;;5031548;28;20049;-62
2024/04/02 01:20:26;;;;;;;13.63;2.47;;;9.50;99.90;;;;;;5032083;28;20390;-62
2024/04/02 01:22:52;;;;;;;12.18;1.98;;;9.60;99.90;;;;;;5031952;28;20075;-62
2024/04/02 01:25:17;;;;;;;10.80;1.90;;;9.60;99.90;;;;;;5032023;28;20050;-62
2024/04/02 01:27:43;;;;;;;12.45;1.65;;;9.60;99.90;;;;;;5032221;28;20049;-62
2024/04/02 01:30:09;;;;;;;12.10;2.35;;;9.60;99.90;;;;;;5031806;28;20044;-62
2024/04/02 01:32:35;;;;;;;8.88;1.85;;;9.60;99.90;;;;;;5031789;28;20048;-62
2024/04/02 01:35:01;;;;;;;7.20;1.50;;;9.70;99.90;;;;;;5031788;28;20057;-62
2024/04/02 01:37:28;;;;;;;7.68;1.70;;;9.70;99.90;;;;;;5031482;28;20485;-62
2024/04/02 01:39:53;;;;;;;9.38;1.70;;;9.70;99.90;;;;;;5031663;28;20033;-62
2024/04/02 01:42:19;;;;;;;13.50;2.00;;;9.70;99.90;;;;;;5031765;28;20433;-63
2024/04/02 01:44:45;;;;;;;11.85;1.80;;;9.70;99.90;;;;;;5035712;28;20487;-62
2024/04/02 01:47:11;;;;;;;7.90;1.15;;;9.60;99.90;;;;;;5035431;28;20490;-62
2024/04/02 01:49:36;;;;;;;9.25;1.40;;;9.60;99.90;;;;;;5035675;28;20045;-62
2024/04/02 01:52:02;;;;;;;11.02;1.67;;;9.60;99.90;;;;;;5035859;28;20394;-62
2024/04/02 01:54:28;;;;;;;8.05;1.63;;;9.50;99.90;;;;;;5036285;28;20049;-62
2024/04/02 01:56:54;;;;;;;9.25;1.98;;;9.50;99.90;;;;;;5035798;28;20052;-62
2024/04/02 01:59:20;;;;;;;8.43;1.77;;;9.40;99.90;;;;;;5035611;28;20042;-62
2024/04/02 02:01:46;;;;;;;8.60;1.77;;;9.30;99.90;;;;;;5035335;28;20048;-62
2024/04/02 02:04:12;;;;;;;10.98;1.95;;;9.30;99.90;;;;;;5035753;28;20072;-62
2024/04/02 02:06:37;;;;;;;12.77;2.28;;;9.20;99.90;;;;;;5035665;28;20073;-62
2024/04/02 02:09:03;;;;;;;17.60;2.40;;;9.20;99.90;;;;;;5035996;28;20041;-62
2024/04/02 02:11:29;;;;;;;11.63;2.20;;;9.20;99.90;;;;;;5035479;28;20395;-62
2024/04/02 02:13:55;;;;;;;12.82;2.20;;;9.10;99.90;;;;;;5035998;28;20379;-62
2024/04/02 02:16:20;;;;;;;12.90;2.30;;;9.20;99.90;;;;;;5035203;28;20057;-62
2024/04/02 02:18:46;;;;;;;15.68;2.60;;;9.10;99.90;;;;;;5035339;28;20049;-62
2024/04/02 02:21:12;;;;;;;11.40;2.50;;;9.10;99.90;;;;;;5035469;28;20144;-62
2024/04/02 02:23:40;;;;;;;12.90;2.35;;;9.20;99.90;;;;;;5035420;28;20049;-62
2024/04/02 02:26:06;;;;;;;15.55;2.45;;;9.20;99.90;;;;;;5035182;28;20088;-62
2024/04/02 02:28:32;;;;;;;13.90;2.40;;;9.20;99.90;;;;;;5035520;28;20050;-62
2024/04/02 02:30:57;;;;;;;11.90;2.47;;;9.20;99.90;;;;;;5034997;28;20103;-62
2024/04/02 02:33:23;;;;;;;12.45;2.67;;;9.20;99.90;;;;;;5035152;28;20037;-68
2024/04/02 02:35:49;;;;;;;16.92;3.10;;;9.20;99.90;;;;;;5034832;28;20351;-68
2024/04/02 02:38:15;;;;;;;14.20;2.50;;;9.30;99.90;;;;;;5034830;28;20383;-68
2024/04/02 02:40:40;;;;;;;14.27;2.08;;;9.30;99.90;;;;;;5034857;28;20037;-68
2024/04/02 02:43:06;;;;;;;16.73;2.58;;;9.30;99.90;;;;;;5034678;28;20076;-68
2024/04/02 02:45:32;;;;;;;16.13;3.28;;;9.30;99.90;;;;;;5035050;28;20072;-68
2024/04/02 02:47:58;;;;;;;14.90;2.50;;;9.30;99.90;;;;;;5034571;28;20095;-68
2024/04/02 02:50:23;;;;;;;14.88;2.25;;;9.40;99.90;;;;;;5034819;28;20624;-68
2024/04/02 02:52:49;;;;;;;12.82;2.85;;;9.40;99.90;;;;;;5034548;28;20038;-68
2024/04/02 02:55:15;;;;;;;16.77;2.67;;;9.40;99.90;;;;;;5033588;28;20053;-68
2024/04/02 02:57:41;;;;;;;13.68;2.78;;;9.40;99.90;;;;;;5034718;28;20038;-68
2024/04/02 03:00:07;;;;;;;14.68;3.53;;;9.40;99.90;;;;;;5034793;28;20076;-68
2024/04/02 03:02:33;;;;;;;16.02;2.63;;;9.40;99.90;;;;;;5034215;28;20059;-68
2024/04/02 03:04:58;;;;;;;11.07;2.72;;;9.30;99.90;;;;;;5035087;28;20099;-68
2024/04/02 03:07:25;;;;;;;11.80;2.30;;;9.30;99.90;;;;;;5034657;28;20128;-68
2024/04/02 03:09:51;;;;;;;14.25;2.28;;;9.30;99.90;;;;;;5034783;28;20091;-68
2024/04/02 03:12:16;;;;;;;13.40;2.17;;;9.20;99.90;;;;;;5034074;28;20083;-68
2024/04/02 03:14:42;;;;;;;16.15;2.92;;;9.20;99.90;;;;;;5034460;28;20048;-68
2024/04/02 03:17:08;;;;;;;10.88;1.98;;;9.10;99.90;;;;;;5033983;28;20060;-68
2024/04/02 03:19:34;;;;;;;9.15;1.63;;;9.10;99.90;;;;;;5034364;28;20049;-68
2024/04/02 03:22:00;;;;;;;12.18;2.75;;;9.00;99.90;;;;;;5051075;28;20042;-69
2024/04/02 03:24:25;;;;;;;11.50;1.70;;;9.00;99.90;;;;;;5034132;28;20048;-68
2024/04/02 03:26:51;;;;;;;10.00;2.00;;;9.00;99.90;;;;;;5033991;28;20073;-68
2024/04/02 03:29:17;;;;;;;13.25;1.90;;;9.00;99.90;;;;;;5034251;28;20116;-68
2024/04/02 03:31:44;;;;;;;14.20;2.40;;;9.00;99.90;;;;;;5033957;28;20077;-68
2024/04/02 03:34:10;;;;;;;11.20;1.73;;;9.00;99.90;;;;;;5033947;28;20144;-68
2024/04/02 03:36:36;;;;;;;8.48;1.80;;;9.00;99.90;;;;;;5033483;28;20124;-68
2024/04/02 03:39:02;;;;;;;8.85;1.80;;;9.00;99.90;;;;;;5034023;28;20155;-68
2024/04/02 03:41:28;;;;;;;8.98;1.90;;;8.90;99.90;;;;;;5034009;28;20056;-68
2024/04/02 03:43:54;;;;;;;8.82;1.27;;;8.90;99.90;;;;;;5033806;28;20453;-68
2024/04/02 03:46:19;;;;;;;7.25;1.10;;;8.90;99.90;;;;;;5033742;28;20037;-68
2024/04/02 03:48:48;;;;;;;7.78;1.55;;;8.80;99.90;;;;;;5033470;28;20065;-61
2024/04/02 03:51:15;;;;;;;4.18;0.77;;;8.80;99.90;;;;;;5033601;28;20055;-61
2024/04/02 03:53:40;;;;;;;4.13;0.82;;;8.70;99.90;;;;;;5033530;28;20399;-61
2024/04/02 03:56:06;;;;;;;4.75;0.77;;;8.70;99.90;;;;;;5033453;28;20052;-61
2024/04/02 03:58:32;;;;;;;6.05;1.00;;;8.60;99.90;;;;;;5033732;28;20077;-61
2024/04/02 04:00:58;;;;;;;2.88;0.60;;;8.60;99.90;;;;;;5033359;28;20042;-61
2024/04/02 04:03:23;;;;;;;2.33;0.63;;;8.60;99.90;;;;;;5033672;28;20444;-61
2024/04/02 04:05:49;;;;;;;4.50;0.80;;;8.60;99.90;;;;;;5033503;28;20045;-61
2024/04/02 04:08:15;;;;;;;3.47;0.68;;;8.60;99.90;;;;;;5033304;28;20153;-61
2024/04/02 04:10:41;;;;;;;4.88;0.88;;;8.70;99.90;;;;;;5033345;28;20046;-61
2024/04/02 04:13:06;;;;;;;8.63;1.63;;;8.70;99.90;;;;;;5033175;28;20044;-61
2024/04/02 04:15:32;;;;;;;10.88;1.55;;;8.70;99.90;;;;;;5033420;28;20044;-61
2024/04/02 04:17:58;;;;;;;11.65;1.63;;;8.80;99.90;;;;;;5033229;28;20099;-61
2024/04/02 04:20:29;;;;;;;10.32;1.58;;;8.80;99.90;;;;;;5033584;28;20087;-61
2024/04/02 04:22:55;;;;;;;12.05;1.63;;;8.90;99.90;;;;;;5033526;28;20124;-61
2024/04/02 04:25:20;;;;;;;15.48;2.47;;;8.90;99.90;;;;;;5033368;28;20532;-61
2024/04/02 04:27:46;;;;;;;13.27;2.30;;;9.00;99.90;;;;;;5033364;28;20041;-61
2024/04/02 04:30:12;;;;;;;15.75;2.50;;;9.00;99.90;;;;;;5033495;28;20111;-61
2024/04/02 04:32:38;;;;;;;11.45;2.53;;;9.10;99.90;;;;;;5033402;28;20056;-61
2024/04/02 04:35:03;;;;;;;16.25;2.25;;;9.10;99.90;;;;;;5033259;28;20068;-61
2024/04/02 04:37:29;;;;;;;14.25;2.45;;;9.20;99.90;;;;;;5032936;28;20040;-61
2024/04/02 04:39:55;;;;;;;17.17;2.72;;;9.20;99.90;;;;;;5033382;28;20049;-61
2024/04/02 04:42:22;;;;;;;14.52;2.17;;;9.30;99.90;;;;;;5033131;28;20052;-61
2024/04/02 04:44:48;;;;;;;13.52;2.20;;;9.30;99.90;;;;;;5032896;28;20046;-61
2024/04/02 04:47:14;;;;;;;17.75;2.95;;;9.30;99.90;;;;;;5033003;28;20137;-61
2024/04/02 04:49:40;;;;;;;18.75;3.00;;;9.30;99.90;;;;;;5033236;28;20041;-61
2024/04/02 04:52:06;;;;;;;15.13;2.90;;;9.30;99.90;;;;;;5032811;28;20053;-61
2024/04/02 04:54:31;;;;;;;16.48;3.05;;;9.40;99.90;;;;;;5032803;28;20033;-61
2024/04/02 04:56:57;;;;;;;13.45;2.67;;;9.30;99.90;;;;;;5032663;28;20403;-61
2024/04/02 04:59:23;;;;;;;18.75;3.70;;;9.30;99.90;;;;;;5032882;28;20048;-61
2024/04/02 05:01:48;;;;;;;20.77;2.55;;;9.40;99.90;;;;;;5032609;28;20046;-61
2024/04/02 05:04:14;;;;;;;16.70;2.33;;;9.30;99.90;;;;;;5032669;28;20118;-62
2024/04/02 05:06:42;;;;;;;17.40;2.78;;;9.30;99.90;;;;;;5032495;28;20069;-61
2024/04/02 05:09:08;;;;;;;13.23;2.03;;;9.30;99.90;;;;;;5032987;28;20103;-61
2024/04/02 05:11:34;;;;;;;13.05;2.03;;;9.30;99.90;;;;;;5032666;28;20490;-62
2024/04/02 05:14:00;;;;;;;13.38;2.50;;;9.30;99.90;;;;;;5032444;28;20393;-62
2024/04/02 05:16:27;;;;;;;12.77;2.10;;;9.40;99.90;;;;;;5032303;28;20045;-62
2024/04/02 05:18:53;;;;;;;15.02;2.60;;;9.40;99.90;;;;;;5032280;28;20038;-62
2024/04/02 05:21:19;;;;;;;14.48;2.00;;;9.40;99.90;;;;;;5049339;28;20052;-61
2024/04/02 05:23:44;;;;;;;12.95;2.33;;;9.40;99.90;;;;;;5032421;28;20458;-62
2024/04/02 05:26:10;;;;;;;13.60;2.47;;;9.40;99.90;;;;;;5032285;28;20247;-62
2024/04/02 05:28:36;;;;;;;10.38;1.80;;;9.40;99.90;;;;;;5032222;28;20441;-62
2024/04/02 05:31:02;;;;;;;11.70;2.22;;;9.50;99.90;;;;;;5032242;28;20048;-62
2024/04/02 05:33:27;;;;;;;9.30;1.73;;;9.40;99.90;;;;;;5032592;28;20033;-62
2024/04/02 05:35:53;;;;;;;9.85;1.90;;;9.50;99.90;;;;;;5032249;28;20518;-61
2024/04/02 05:38:19;;;;;;;7.53;1.65;;;9.50;99.90;;;;;;5032490;28;20093;-61
2024/04/02 05:40:45;;;;;;;11.43;2.08;;;9.50;99.90;;;;;;5032362;28;20042;-61
2024/04/02 05:43:10;;;;;;;10.88;2.38;;;9.50;99.90;;;;;;5032148;28;20107;-63
2024/04/02 05:45:36;;;;;;;15.02;2.15;;;9.50;99.90;;;;;;5032223;28;20080;-62
2024/04/02 05:48:02;;;;;;;13.90;2.28;;;9.50;99.90;;;;;;5032186;28;20106;-61
2024/04/02 05:50:28;;;;;;;17.95;2.83;;;9.60;99.90;;;;;;5032511;28;20037;-63
2024/04/02 05:52:55;;;;;;;10.20;2.20;;;9.50;99.90;;;;;;5032179;28;20034;-63
2024/04/02 05:55:21;;;;;;;13.88;2.67;;;9.60;99.90;;;;;;5032030;28;20075;-63
2024/04/02 05:57:46;;;;;;;11.90;2.53;;;9.60;99.90;;;;;;5032419;28;20033;-63
2024/04/02 06:00:12;;;;;;;12.50;2.65;;;9.60;99.90;;;;;;5032098;28;20433;-63
2024/04/02 06:02:38;;;;;;;13.93;2.60;;;9.60;99.90;;;;;;5032005;28;20053;-63
2024/04/02 06:05:04;;;;;;;15.57;2.30;;;9.50;99.90;;;;;;5032068;28;20053;-63
2024/04/02 06:07:30;;;;;;;13.13;2.72;;;9.60;99.90;;;;;;5031974;28;20080;-62
2024/04/02 06:09:56;;;;;;;12.50;2.40;;;9.60;99.90;;;;;;5041047;28;20036;-63
2024/04/02 06:12:21;;;;;;;12.98;2.22;;;9.50;99.90;;;;;;5035399;28;20132;-63
2024/04/02 06:14:47;;;;;;;13.88;2.63;;;9.50;99.90;;;;;;5051808;28;20042;-63
2024/04/02 06:17:13;;;;;;;10.68;2.33;;;9.50;99.90;;;;;;5051467;28;20433;-63
2024/04/02 06:19:39;;;;;;;11.23;1.98;;;9.50;99.90;;;;;;5035254;28;20061;-61
2024/04/02 06:22:05;;;;;;;11.63;2.33;;;9.50;99.90;;;;;;5035183;28;20375;-62
2024/04/02 06:24:30;;;;;;;11.70;2.22;;;9.50;99.90;;;;;;5051929;28;20073;-62
2024/04/02 06:26:56;;;;;;;13.38;2.45;;;9.50;99.90;;;;;;5051834;28;20033;-61
2024/04/02 06:29:22;;;;;;;12.38;1.90;;;9.50;99.90;;;;;;5051678;28;20443;-61
2024/04/02 06:31:48;;;;;;;7.47;1.70;;;9.50;99.90;;;;;;5055241;28;20395;-61
2024/04/02 06:34:14;;;;;;;9.93;1.75;;;9.50;99.90;;;;;;5055611;28;20041;-62
2024/04/02 06:36:39;;;;;;;8.75;1.38;;;9.50;99.90;;;;;;5054236;28;20518;-61
2024/04/02 06:39:07;;;;;;;8.57;1.60;;;9.50;99.90;;;;;;5054636;28;20033;-62
2024/04/02 06:41:32;;;;;;;8.65;1.20;;;9.60;99.90;;;;;;5034488;28;20040;-61
2024/04/02 06:44:00;;;;;;;7.65;1.60;;;9.60;99.90;;;;;;5054462;28;20041;-62
2024/04/02 06:46:25;;;;;;;9.15;1.40;;;9.70;99.90;;;;;;5054175;28;20048;-63
2024/04/02 06:48:51;;;;;;;8.15;1.67;;;9.70;99.90;;;;;;5054467;28;20041;-63
2024/04/02 06:51:18;;;;;;;6.03;1.20;;;9.80;99.90;;;;;;5054369;28;20520;-63
2024/04/02 06:53:44;;;;;;;8.52;1.08;;;9.80;99.90;;;;;;5054212;28;20033;-63
2024/04/02 06:56:10;;;;;;;6.18;1.88;;;9.80;99.90;;;;;;5054225;28;20052;-63
2024/04/02 06:58:37;;;;;;;8.20;1.27;;;9.80;99.90;;;;;;5054328;28;20029;-63
2024/04/02 07:01:03;;;;;;;6.78;1.20;;;9.80;99.90;;;;;;5054086;28;20501;-63
2024/04/02 07:03:29;;;;;;;7.93;1.40;;;9.80;99.90;;;;;;5070882;28;20127;-63
2024/04/02 07:05:55;;;;;;;7.28;1.48;;;9.80;99.90;;;;;;5070927;28;20052;-63
2024/04/02 07:08:25;;;;;;;4.63;1.20;;;9.80;99.90;;;;;;5053422;28;20049;-62
2024/04/02 07:10:50;;;;;;;6.03;1.75;;;9.80;99.90;;;;;;5054328;28;20188;-63
2024/04/02 07:13:16;;;;;;;8.45;1.88;;;9.80;99.90;;;;;;5053992;28;20045;-63
2024/04/02 07:15:42;;;;;;;6.65;1.45;;;9.80;99.90;;;;;;5053965;28;20127;-63
2024/04/02 07:18:08;;;;;;;5.43;1.20;;;9.80;99.90;;;;;;5053608;28;20064;-66
2024/04/02 07:20:34;;;;;;;5.47;1.08;;;9.80;99.90;;;;;;5053493;28;20041;-65
2024/04/02 07:23:00;;;;;;;3.80;1.05;;;9.80;99.90;;;;;;5053390;28;20071;-65
2024/04/02 07:25:25;;;;;;;4.50;1.10;;;9.80;99.90;;;;;;5053626;28;20076;-65
2024/04/02 07:27:51;;;;;;;4.05;0.95;;;9.90;99.90;;;;;;5053685;28;20116;-65
2024/04/02 07:30:17;;;;;;;2.58;0.80;;;9.80;99.90;;;;;;5053144;28;20045;-63
2024/04/02 07:32:43;;;;;;;3.30;0.90;;;9.90;99.90;;;;;;5035947;28;20045;-63
2024/04/02 07:35:08;;;;;;;3.03;0.80;;;9.90;99.90;;;;;;5053525;28;20091;-63
2024/04/02 07:37:34;;;;;;;4.10;0.68;;;10.00;99.90;;;;;;5037016;28;20440;-63
2024/04/02 07:40:00;;;;;;;3.55;0.63;;;10.00;99.90;;;;;;5053825;28;20463;-70
2024/04/02 07:42:26;;;;;;;3.97;1.00;;;10.00;99.90;;;;;;5053249;28;20497;-67
2024/04/02 07:44:52;;;;;;;3.83;0.90;;;10.00;99.90;;;;;;5053409;28;20497;-69
2024/04/02 07:47:17;;;;;;;4.50;0.85;;;9.80;99.90;;;;;;5053379;28;20040;-68
2024/04/02 07:49:43;;;;;;;3.42;0.95;;;9.80;99.90;;;;;;5053456;28;20048;-68
2024/04/02 07:52:09;;;;;;;3.58;0.73;;;9.70;99.90;;;;;;5070012;28;20103;-69
2024/04/02 07:54:35;;;;;;;2.90;0.73;;;9.70;99.90;;;;;;5053449;28;20414;-69
2024/04/02 07:57:00;;;;;;;3.72;1.00;;;9.70;99.90;;;;;;5053014;28;20482;-69
2024/04/02 07:59:26;;;;;;;3.58;1.23;;;9.80;99.90;;;;;;5053261;28;20144;-68
2024/04/02 08:01:52;;;;;;;2.80;0.88;;;9.80;99.90;;;;;;5053378;28;20124;-68
2024/04/02 08:04:18;;;;;;;4.35;0.90;;;9.80;99.90;;;;;;5053087;28;20099;-68
2024/04/02 08:06:44;;;;;;;2.78;0.90;;;9.90;99.90;;;;;;5036259;28;20039;-68
2024/04/02 08:09:10;;;;;;;2.72;0.85;;;9.90;99.90;;;;;;5053077;28;20052;-69
2024/04/02 08:11:35;;;;;;;3.03;1.00;;;10.00;99.90;;;;;;5036523;28;20115;-62
2024/04/02 08:14:01;;;;;;;5.28;1.00;;;10.00;99.90;;;;;;5052883;28;20056;-62
2024/04/02 08:16:27;;;;;;;2.58;0.82;;;10.10;99.90;;;;;;5052715;28;20485;-62
2024/04/02 08:18:53;;;;;;;4.80;1.35;;;10.20;99.90;;;;;;5053043;28;20036;-62
2024/04/02 08:21:18;;;;;;;3.65;1.15;;;10.20;99.90;;;;;;5053161;28;20445;-63
2024/04/02 08:23:44;;;;;;;6.50;0.95;;;10.30;99.90;;;;;;5053232;28;20048;-63
2024/04/02 08:26:10;;;;;;;3.90;0.90;;;10.30;99.90;;;;;;5052956;28;20493;-62
2024/04/02 08:28:36;;;;;;;6.82;1.63;;;10.30;99.90;;;;;;5052952;28;20435;-64
2024/04/02 08:31:01;;;;;;;3.63;1.38;;;10.30;99.90;;;;;;5036124;28;20041;-62
2024/04/02 08:33:27;;;;;;;4.07;1.27;;;10.20;99.90;;;;;;5052623;28;20041;-62
2024/04/02 08:35:53;;;;;;;6.20;1.60;;;10.20;99.90;;;;;;5052623;28;20045;-62
2024/04/02 08:38:19;;;;;;;5.70;1.05;;;10.20;99.90;;;;;;5052988;28;20036;-63
2024/04/02 08:40:45;;;;;;;5.30;1.40;;;10.30;99.90;;;;;;5052873;28;20096;-65
2024/04/02 08:43:10;;;;;;;5.05;1.30;;;10.30;99.90;;;;;;5052810;28;20044;-65
2024/04/02 08:45:41;;;;;;;3.05;1.13;;;10.40;99.90;;;;;;5052429;28;20094;-66
2024/04/02 08:48:10;;;;;;;4.20;1.38;;;10.40;99.90;;;;;;5052476;28;20183;-66
2024/04/02 08:50:36;;;;;;;3.17;1.05;;;10.40;99.90;;;;;;5052623;28;20040;-66
2024/04/02 08:53:02;;;;;;;6.55;1.27;;;10.50;99.90;;;;;;5051942;28;20037;-66
2024/04/02 08:55:28;;;;;;;5.78;1.30;;;10.60;99.90;;;;;;5052565;28;20048;-65
2024/04/02 08:57:53;;;;;;;4.30;1.58;;;10.60;99.90;;;;;;5053200;28;20041;-65
2024/04/02 09:00:19;;;;;;;4.47;1.20;;;10.60;99.90;;;;;;5052984;28;20041;-65
2024/04/02 09:02:45;;;;;;;3.85;1.55;;;10.60;99.90;;;;;;5052294;28;20051;-65
2024/04/02 09:05:11;;;;;;;7.97;1.35;;;10.70;99.90;;;;;;5052306;28;20433;-66
2024/04/02 09:07:37;;;;;;;4.18;1.25;;;10.80;99.90;;;;;;5052405;28;20538;-65
2024/04/02 09:10:02;;;;;;;5.18;1.90;;;10.80;99.90;;;;;;5035743;28;20043;-66
2024/04/02 09:12:28;;;;;;;4.03;1.45;;;10.90;99.90;;;;;;5052425;28;20115;-65
2024/04/02 09:14:54;;;;;;;4.63;1.30;;;10.90;99.90;;;;;;5035782;28;20179;-65
2024/04/02 09:17:20;;;;;;;5.45;1.15;;;11.10;99.90;;;;;;5051982;28;20099;-65
2024/04/02 09:19:45;;;;;;;4.65;0.98;;;11.10;99.90;;;;;;5052140;28;20471;-65
2024/04/02 09:22:11;;;;;;;4.38;1.10;;;11.30;99.90;;;;;;5052164;28;20475;-62
2024/04/02 09:24:37;;;;;;;5.78;1.20;;;11.40;99.90;;;;;;5051975;28;20195;-62
2024/04/02 09:27:03;;;;;;;2.30;0.80;;;11.40;99.90;;;;;;5051711;28;20052;-62
2024/04/02 09:29:28;;;;;;;5.53;0.90;;;11.50;99.90;;;;;;5052034;28;20048;-62
2024/04/02 09:31:54;;;;;;;2.85;0.82;;;11.50;99.90;;;;;;5052081;28;20094;-62
2024/04/02 09:34:20;;;;;;;3.53;1.00;;;11.60;99.90;;;;;;5051934;28;20068;-62
2024/04/02 09:36:46;;;;;;;5.03;1.00;;;11.70;99.90;;;;;;5051848;28;20079;-63
2024/04/02 09:39:12;;;;;;;3.13;1.00;;;11.80;99.90;;;;;;5051925;28;20037;-63
2024/04/02 09:41:37;;;;;;;3.40;0.90;;;11.80;99.90;;;;;;5051576;28;20475;-63
2024/04/02 09:44:03;;;;;;;4.75;1.17;;;11.80;99.90;;;;;;5051781;28;20052;-62
2024/04/02 09:46:29;;;;;;;3.83;1.00;;;12.00;99.90;;;;;;5034813;28;20143;-62
2024/04/02 09:48:55;;;;;;;3.03;0.88;;;12.10;99.90;;;;;;5051444;28;20051;-62
2024/04/02 09:51:21;;;;;;;2.22;0.80;;;12.20;99.90;;;;;;5051432;28;20040;-68
2024/04/02 09:53:47;;;;;;;6.57;1.20;;;12.30;99.90;;;;;;5051484;28;20116;-70
2024/04/02 09:56:12;;;;;;;5.00;1.00;;;12.30;99.90;;;;;;5051463;28;20470;-69
2024/04/02 09:58:38;;;;;;;4.10;0.90;;;12.30;99.90;;;;;;5050957;28;20044;-63
2024/04/02 10:01:04;;;;;;;3.22;0.90;;;12.40;99.90;;;;;;5051081;28;20117;-64
2024/04/02 10:03:30;;;;;;;2.97;0.88;;;12.50;99.90;;;;;;5051309;28;20409;-64
2024/04/02 10:05:55;;;;;;;4.35;1.10;;;12.50;99.90;;;;;;5054965;28;20119;-68
2024/04/02 10:08:21;;;;;;;4.53;1.00;;;12.50;99.90;;;;;;5055617;28;20041;-68
2024/04/02 10:10:48;;;;;;;3.13;0.80;;;12.50;99.90;;;;;;5055717;28;20049;-63
2024/04/02 10:13:14;;;;;;;4.25;0.90;;;12.40;99.90;;;;;;5055557;28;20037;-68
2024/04/02 10:15:40;;;;;;;4.47;0.98;;;12.30;99.90;;;;;;5055276;28;20509;-67
2024/04/02 10:18:05;;;;;;;3.25;1.02;;;12.20;99.90;;;;;;5055114;28;20049;-62
2024/04/02 10:20:32;;;;;;;3.40;1.00;;;12.20;99.90;;;;;;5055738;28;20056;-63
2024/04/02 10:22:58;;;;;;;4.13;1.15;;;12.10;99.90;;;;;;5055530;28;20413;-63
2024/04/02 10:25:23;;;;;;;4.07;1.50;;;12.20;99.90;;;;;;5055114;28;20045;-68
2024/04/02 10:27:50;;;;;;;5.03;1.23;;;12.30;99.90;;;;;;5055479;28;20359;-64
2024/04/02 10:30:16;;;;;;;6.30;1.45;;;12.40;99.90;;;;;;5055048;28;20056;-63
2024/04/02 10:32:42;;;;;;;3.83;1.10;;;12.50;99.90;;;;;;5071979;28;20398;-62
2024/04/02 10:35:07;;;;;;;6.28;1.92;;;12.40;99.90;;;;;;5055071;28;20090;-62
2024/04/02 10:37:33;;;;;;;2.75;1.08;;;12.30;99.90;;;;;;5055274;28;20044;-62
2024/04/02 10:40:01;;;;;;;2.88;0.95;;;12.30;99.90;;;;;;5055099;28;20080;-62
2024/04/02 10:42:27;;;;;;;2.65;1.10;;;12.40;99.90;;;;;;5054863;28;20067;-68
2024/04/02 10:44:53;;;;;;;3.03;1.00;;;12.50;99.90;;;;;;5054945;28;20072;-68
2024/04/02 10:47:19;;;;;;;3.50;0.98;;;12.70;99.90;;;;;;5054771;28;20040;-64
2024/04/02 10:49:44;;;;;;;2.75;1.02;;;12.90;99.90;;;;;;5055139;28;20045;-63
2024/04/02 10:52:10;;;;;;;2.15;0.70;;;12.90;99.90;;;;;;5054975;28;20120;-64
2024/04/02 10:54:36;;;;;;;2.67;0.80;;;13.10;99.90;;;;;;5054903;28;20033;-63
2024/04/02 10:57:02;;;;;;;2.25;0.75;;;13.20;99.90;;;;;;5054756;28;20381;-63
2024/04/02 10:59:27;;;;;;;4.75;0.88;;;13.30;99.90;;;;;;5038108;28;20083;-63
2024/04/02 11:01:55;;;;;;;3.50;0.77;;;13.40;99.90;;;;;;5055002;28;20041;-64
2024/04/02 11:04:21;;;;;;;3.95;0.70;;;13.40;99.90;;;;;;5054749;28;20045;-64
2024/04/02 11:06:47;;;;;;;2.78;0.80;;;13.30;99.90;;;;;;5054694;28;20087;-63
2024/04/02 11:09:12;;;;;;;3.40;0.90;;;13.40;99.90;;;;;;5054420;28;20033;-65
2024/04/02 11:11:38;;;;;;;3.15;0.88;;;13.30;99.90;;;;;;5037981;28;20041;-64
2024/04/02 11:14:05;;;;;;;3.15;1.00;;;13.30;99.90;;;;;;5038304;28;20501;-65
2024/04/02 11:16:31;;;;;;;1.98;0.70;;;13.30;99.90;;;;;;5053300;28;20494;-65
2024/04/02 11:18:57;;;;;;;2.47;0.60;;;13.30;99.90;;;;;;5054610;28;20037;-65
2024/04/02 11:21:24;;;;;;;2.85;0.60;;;13.40;99.90;;;;;;5054445;28;20124;-64
2024/04/02 11:26:34;;;;;;;1.42;0.50;;;13.60;99.90;;;;;;5070789;28;20091;-64
2024/04/02 11:29:00;;;;;;;2.22;0.60;;;13.60;99.90;;;;;;5054189;28;20363;-65
2024/04/02 11:31:26;;;;;;;3.38;0.73;;;13.60;99.90;;;;;;5054139;28;20532;-68
2024/04/02 11:33:51;;;;;;;3.47;0.70;;;13.60;99.90;;;;;;5054324;28;20072;-68
2024/04/02 11:36:17;;;;;;;3.03;0.60;;;13.70;99.90;;;;;;5054239;28;20064;-62
2024/04/02 11:38:43;;;;;;;3.90;0.77;;;13.70;99.90;;;;;;5054205;28;20538;-63
2024/04/02 11:41:09;;;;;;;2.90;1.00;;;13.70;99.90;;;;;;5054034;28;20095;-62
2024/04/02 11:43:35;;;;;;;3.20;0.50;;;13.80;99.90;;;;;;5053716;28;20045;-62
2024/04/02 11:46:03;;;;;;;2.63;0.70;;;13.80;99.90;;;;;;5053793;28;20056;-63
2024/04/02 11:48:28;;;;;;;1.67;0.60;;;14.00;99.90;;;;;;5053961;28;20045;-62
2024/04/02 11:50:54;;;;;;;4.57;0.82;;;14.30;99.90;;;;;;5037034;28;20081;-62
2024/04/02 11:53:20;;;;;;;3.47;0.73;;;14.50;99.90;;;;;;5036780;28;20072;-62
2024/04/02 11:55:49;;;;;;;2.28;0.70;;;14.70;99.90;;;;;;5053462;28;20033;-63
2024/04/02 12:01:00;;;;;;;2.35;0.77;;;14.60;99.90;;;;;;5070581;28;20110;-64
2024/04/02 12:03:26;;;;;;;1.85;0.70;;;14.60;99.90;;;;;;5037057;28;20489;-64
2024/04/02 12:05:51;;;;;;;2.83;0.50;;;14.60;99.90;;;;;;5053305;28;20486;-64
2024/04/02 12:08:17;;;;;;;0.98;0.50;;;14.60;99.90;;;;;;5053510;28;20090;-63
2024/04/02 12:10:43;;;;;;;2.22;0.40;;;14.50;99.90;;;;;;5053501;28;20037;-62
2024/04/02 12:13:09;;;;;;;3.15;0.80;;;14.50;99.90;;;;;;5069822;28;20433;-64
2024/04/02 12:15:37;;;;;;;3.22;0.70;;;14.60;99.90;;;;;;5053304;28;20056;-65
2024/04/02 12:18:03;;;;;;;1.67;0.50;;;14.60;99.90;;;;;;5053286;28;20493;-62
2024/04/02 12:20:29;;;;;;;1.70;0.50;;;14.60;99.90;;;;;;5053358;28;20496;-67
2024/04/02 12:22:55;;;;;;;1.60;0.50;;;14.60;99.90;;;;;;5052986;28;20076;-68
2024/04/02 12:25:22;;;;;;;2.55;0.70;;;14.50;99.90;;;;;;5053182;28;20552;-68
2024/04/02 12:27:47;;;;;;;2.45;0.60;;;14.50;99.90;;;;;;5052916;28;20036;-63
2024/04/02 12:30:13;;;;;;;3.08;0.70;;;14.60;99.90;;;;;;5053131;28;20071;-63
2024/04/02 12:32:41;;;;;;;2.92;0.70;;;14.60;99.90;;;;;;5052958;28;20041;-64
2024/04/02 12:35:06;;;;;;;2.00;0.90;;;14.60;99.90;;;;;;5053576;28;20068;-65
2024/04/02 12:37:32;;;;;;;2.97;0.57;;;14.60;99.90;;;;;;5036369;28;20040;-65
2024/04/02 12:39:58;;;;;;;1.98;0.50;;;14.60;99.90;;;;;;5053170;28;20041;-62
2024/04/02 12:42:24;;;;;;;3.38;0.60;;;14.80;99.90;;;;;;5053268;28;20033;-62
2024/04/02 12:44:50;;;;;;;2.65;0.70;;;14.90;99.90;;;;;;5053230;28;20429;-63